<?xml version="1.0" encoding="UTF-8" standalone="no" ?>
<gpx xmlns="http://www.topografix.com/GPX/1/1" xmlns:xsi="http://www.w3.org/2001/XMLSchema-instance" xsi:schemaLocation="http://www.topografix.com/GPX/1/1 http://www.topografix.com/GPX/1/1/gpx.xsd" version="1.1" creator="VisuGPX - https://www.visugpx.com">
  <metadata>
    <name>KAINVILLE FOLLAINVILLE DENNEMONT SAILLY </name>
    <desc><![CDATA[FAIT]]></desc>
  </metadata>
  <trk>
    <name><![CDATA[Lainville-Follainville-Dennemont-Sailly-14067201]]></name>
    <extensions>
      <line xmlns="http://www.topografix.com/GPX/gpx_style/0/2">
        <color>0000FF</color>
        <width>4</width>
      </line>
    </extensions>
    <trkseg>
      <trkpt lat="49.06181" lon="1.81503">
        <ele>156</ele>
        <time>2023-06-05T19:59:45Z</time>
      </trkpt>
      <trkpt lat="49.06175" lon="1.81467">
        <ele>155</ele>
        <time>2023-06-05T20:00:17Z</time>
      </trkpt>
      <trkpt lat="49.06056" lon="1.81412">
        <ele>146</ele>
        <time>2023-06-05T20:03:03Z</time>
      </trkpt>
      <trkpt lat="49.06025" lon="1.814">
        <ele>144</ele>
        <time>2023-06-05T20:03:46Z</time>
      </trkpt>
      <trkpt lat="49.06003" lon="1.81396">
        <ele>143</ele>
        <time>2023-06-05T20:04:16Z</time>
      </trkpt>
      <trkpt lat="49.05986" lon="1.81398">
        <ele>142</ele>
        <time>2023-06-05T20:04:38Z</time>
      </trkpt>
      <trkpt lat="49.05912" lon="1.81415">
        <ele>140</ele>
        <time>2023-06-05T20:06:18Z</time>
      </trkpt>
      <trkpt lat="49.05904" lon="1.81368">
        <ele>137</ele>
        <time>2023-06-05T20:07:01Z</time>
      </trkpt>
      <trkpt lat="49.05939" lon="1.81207">
        <ele>129</ele>
        <time>2023-06-05T20:09:29Z</time>
      </trkpt>
      <trkpt lat="49.05956" lon="1.81096">
        <ele>126</ele>
        <time>2023-06-05T20:11:09Z</time>
      </trkpt>
      <trkpt lat="49.05956" lon="1.81075">
        <ele>126</ele>
        <time>2023-06-05T20:11:27Z</time>
      </trkpt>
      <trkpt lat="49.05938" lon="1.80955">
        <ele>133</ele>
        <time>2023-06-05T20:13:15Z</time>
      </trkpt>
      <trkpt lat="49.05939" lon="1.80911">
        <ele>137</ele>
        <time>2023-06-05T20:13:53Z</time>
      </trkpt>
      <trkpt lat="49.05921" lon="1.8078">
        <ele>154</ele>
        <time>2023-06-05T20:15:50Z</time>
      </trkpt>
      <trkpt lat="49.05917" lon="1.80669">
        <ele>159</ele>
        <time>2023-06-05T20:17:28Z</time>
      </trkpt>
      <trkpt lat="49.05905" lon="1.80581">
        <ele>160</ele>
        <time>2023-06-05T20:18:46Z</time>
      </trkpt>
      <trkpt lat="49.05914" lon="1.80423">
        <ele>172</ele>
        <time>2023-06-05T20:21:05Z</time>
      </trkpt>
      <trkpt lat="49.05912" lon="1.80366">
        <ele>177</ele>
        <time>2023-06-05T20:21:55Z</time>
      </trkpt>
      <trkpt lat="49.05918" lon="1.80292">
        <ele>182</ele>
        <time>2023-06-05T20:23:00Z</time>
      </trkpt>
      <trkpt lat="49.05929" lon="1.80219">
        <ele>185</ele>
        <time>2023-06-05T20:24:05Z</time>
      </trkpt>
      <trkpt lat="49.05966" lon="1.80163">
        <ele>188</ele>
        <time>2023-06-05T20:25:15Z</time>
      </trkpt>
      <trkpt lat="49.06027" lon="1.80049">
        <ele>189</ele>
        <time>2023-06-05T20:27:24Z</time>
      </trkpt>
      <trkpt lat="49.06053" lon="1.80015">
        <ele>188</ele>
        <time>2023-06-05T20:28:09Z</time>
      </trkpt>
      <trkpt lat="49.06076" lon="1.79993">
        <ele>187</ele>
        <time>2023-06-05T20:28:46Z</time>
      </trkpt>
      <trkpt lat="49.06119" lon="1.7993">
        <ele>184</ele>
        <time>2023-06-05T20:30:05Z</time>
      </trkpt>
      <trkpt lat="49.06169" lon="1.79864">
        <ele>182</ele>
        <time>2023-06-05T20:31:33Z</time>
      </trkpt>
      <trkpt lat="49.06198" lon="1.79818">
        <ele>181</ele>
        <time>2023-06-05T20:32:29Z</time>
      </trkpt>
      <trkpt lat="49.06206" lon="1.79791">
        <ele>180</ele>
        <time>2023-06-05T20:32:55Z</time>
      </trkpt>
      <trkpt lat="49.06217" lon="1.79776">
        <ele>181</ele>
        <time>2023-06-05T20:33:15Z</time>
      </trkpt>
      <trkpt lat="49.06239" lon="1.79734">
        <ele>182</ele>
        <time>2023-06-05T20:34:02Z</time>
      </trkpt>
      <trkpt lat="49.0626" lon="1.79709">
        <ele>183</ele>
        <time>2023-06-05T20:34:37Z</time>
      </trkpt>
      <trkpt lat="49.06307" lon="1.79622">
        <ele>179</ele>
        <time>2023-06-05T20:36:16Z</time>
      </trkpt>
      <trkpt lat="49.06324" lon="1.79566">
        <ele>177</ele>
        <time>2023-06-05T20:37:10Z</time>
      </trkpt>
      <trkpt lat="49.06353" lon="1.79507">
        <ele>177</ele>
        <time>2023-06-05T20:38:14Z</time>
      </trkpt>
      <trkpt lat="49.06369" lon="1.79456">
        <ele>174</ele>
        <time>2023-06-05T20:39:04Z</time>
      </trkpt>
      <trkpt lat="49.06387" lon="1.7944">
        <ele>173</ele>
        <time>2023-06-05T20:39:32Z</time>
      </trkpt>
      <trkpt lat="49.06402" lon="1.79431">
        <ele>172</ele>
        <time>2023-06-05T20:39:53Z</time>
      </trkpt>
      <trkpt lat="49.06469" lon="1.79417">
        <ele>167</ele>
        <time>2023-06-05T20:41:23Z</time>
      </trkpt>
      <trkpt lat="49.06489" lon="1.79421">
        <ele>165</ele>
        <time>2023-06-05T20:41:50Z</time>
      </trkpt>
      <trkpt lat="49.06507" lon="1.79417">
        <ele>164</ele>
        <time>2023-06-05T20:42:15Z</time>
      </trkpt>
      <trkpt lat="49.06564" lon="1.79385">
        <ele>162</ele>
        <time>2023-06-05T20:43:36Z</time>
      </trkpt>
      <trkpt lat="49.06582" lon="1.79322">
        <ele>155</ele>
        <time>2023-06-05T20:44:36Z</time>
      </trkpt>
      <trkpt lat="49.06613" lon="1.79242">
        <ele>154</ele>
        <time>2023-06-05T20:45:57Z</time>
      </trkpt>
      <trkpt lat="49.06607" lon="1.79154">
        <ele>148</ele>
        <time>2023-06-05T20:47:14Z</time>
      </trkpt>
      <trkpt lat="49.0659" lon="1.79081">
        <ele>144</ele>
        <time>2023-06-05T20:48:22Z</time>
      </trkpt>
      <trkpt lat="49.06581" lon="1.7906">
        <ele>142</ele>
        <time>2023-06-05T20:48:44Z</time>
      </trkpt>
      <trkpt lat="49.06555" lon="1.79017">
        <ele>138</ele>
        <time>2023-06-05T20:49:35Z</time>
      </trkpt>
      <trkpt lat="49.0655" lon="1.79003">
        <ele>137</ele>
        <time>2023-06-05T20:49:49Z</time>
      </trkpt>
      <trkpt lat="49.06545" lon="1.78898">
        <ele>132</ele>
        <time>2023-06-05T20:51:21Z</time>
      </trkpt>
      <trkpt lat="49.0654" lon="1.78861">
        <ele>132</ele>
        <time>2023-06-05T20:51:54Z</time>
      </trkpt>
      <trkpt lat="49.06495" lon="1.78668">
        <ele>121</ele>
        <time>2023-06-05T20:54:53Z</time>
      </trkpt>
      <trkpt lat="49.06468" lon="1.78581">
        <ele>119</ele>
        <time>2023-06-05T20:56:17Z</time>
      </trkpt>
      <trkpt lat="49.06426" lon="1.78367">
        <ele>132</ele>
        <time>2023-06-05T20:59:33Z</time>
      </trkpt>
      <trkpt lat="49.06407" lon="1.78294">
        <ele>137</ele>
        <time>2023-06-05T21:00:41Z</time>
      </trkpt>
      <trkpt lat="49.06388" lon="1.78235">
        <ele>140</ele>
        <time>2023-06-05T21:01:39Z</time>
      </trkpt>
      <trkpt lat="49.06337" lon="1.78104">
        <ele>142</ele>
        <time>2023-06-05T21:03:52Z</time>
      </trkpt>
      <trkpt lat="49.06222" lon="1.77838">
        <ele>139</ele>
        <time>2023-06-05T21:08:31Z</time>
      </trkpt>
      <trkpt lat="49.06055" lon="1.77905">
        <ele>136</ele>
        <time>2023-06-05T21:12:21Z</time>
      </trkpt>
      <trkpt lat="49.05897" lon="1.77972">
        <ele>131</ele>
        <time>2023-06-05T21:16:00Z</time>
      </trkpt>
      <trkpt lat="49.05849" lon="1.78008">
        <ele>129</ele>
        <time>2023-06-05T21:17:11Z</time>
      </trkpt>
      <trkpt lat="49.05776" lon="1.77974">
        <ele>126</ele>
        <time>2023-06-05T21:18:53Z</time>
      </trkpt>
      <trkpt lat="49.05663" lon="1.77963">
        <ele>130</ele>
        <time>2023-06-05T21:21:24Z</time>
      </trkpt>
      <trkpt lat="49.05631" lon="1.77962">
        <ele>131</ele>
        <time>2023-06-05T21:22:07Z</time>
      </trkpt>
      <trkpt lat="49.05601" lon="1.77954">
        <ele>133</ele>
        <time>2023-06-05T21:22:48Z</time>
      </trkpt>
      <trkpt lat="49.05448" lon="1.77797">
        <ele>142</ele>
        <time>2023-06-05T21:26:54Z</time>
      </trkpt>
      <trkpt lat="49.05448" lon="1.7778">
        <ele>141</ele>
        <time>2023-06-05T21:27:09Z</time>
      </trkpt>
      <trkpt lat="49.05473" lon="1.77699">
        <ele>142</ele>
        <time>2023-06-05T21:28:27Z</time>
      </trkpt>
      <trkpt lat="49.05471" lon="1.77691">
        <ele>142</ele>
        <time>2023-06-05T21:28:34Z</time>
      </trkpt>
      <trkpt lat="49.05429" lon="1.7765">
        <ele>142</ele>
        <time>2023-06-05T21:29:41Z</time>
      </trkpt>
      <trkpt lat="49.05264" lon="1.77455">
        <ele>139</ele>
        <time>2023-06-05T21:34:19Z</time>
      </trkpt>
      <trkpt lat="49.05239" lon="1.77429">
        <ele>139</ele>
        <time>2023-06-05T21:35:00Z</time>
      </trkpt>
      <trkpt lat="49.05236" lon="1.77423">
        <ele>139</ele>
        <time>2023-06-05T21:35:06Z</time>
      </trkpt>
      <trkpt lat="49.05213" lon="1.77343">
        <ele>139</ele>
        <time>2023-06-05T21:36:23Z</time>
      </trkpt>
      <trkpt lat="49.05189" lon="1.77242">
        <ele>138</ele>
        <time>2023-06-05T21:37:57Z</time>
      </trkpt>
      <trkpt lat="49.05141" lon="1.77061">
        <ele>138</ele>
        <time>2023-06-05T21:40:48Z</time>
      </trkpt>
      <trkpt lat="49.05131" lon="1.77018">
        <ele>138</ele>
        <time>2023-06-05T21:41:27Z</time>
      </trkpt>
      <trkpt lat="49.05119" lon="1.76949">
        <ele>137</ele>
        <time>2023-06-05T21:42:30Z</time>
      </trkpt>
      <trkpt lat="49.05082" lon="1.76852">
        <ele>134</ele>
        <time>2023-06-05T21:44:08Z</time>
      </trkpt>
      <trkpt lat="49.04989" lon="1.76498">
        <ele>138</ele>
        <time>2023-06-05T21:49:42Z</time>
      </trkpt>
      <trkpt lat="49.04984" lon="1.76471">
        <ele>138</ele>
        <time>2023-06-05T21:50:06Z</time>
      </trkpt>
      <trkpt lat="49.04818" lon="1.76401">
        <ele>139</ele>
        <time>2023-06-05T21:53:56Z</time>
      </trkpt>
      <trkpt lat="49.04471" lon="1.7628">
        <ele>147</ele>
        <time>2023-06-05T22:01:51Z</time>
      </trkpt>
      <trkpt lat="49.04403" lon="1.76271">
        <ele>150</ele>
        <time>2023-06-05T22:03:22Z</time>
      </trkpt>
      <trkpt lat="49.04198" lon="1.76271">
        <ele>165</ele>
        <time>2023-06-05T22:07:56Z</time>
      </trkpt>
      <trkpt lat="49.03981" lon="1.76265">
        <ele>177</ele>
        <time>2023-06-05T22:12:45Z</time>
      </trkpt>
      <trkpt lat="49.03936" lon="1.76242">
        <ele>179</ele>
        <time>2023-06-05T22:13:49Z</time>
      </trkpt>
      <trkpt lat="49.03898" lon="1.76218">
        <ele>180</ele>
        <time>2023-06-05T22:14:43Z</time>
      </trkpt>
      <trkpt lat="49.03843" lon="1.76175">
        <ele>177</ele>
        <time>2023-06-05T22:16:06Z</time>
      </trkpt>
      <trkpt lat="49.03805" lon="1.76141">
        <ele>173</ele>
        <time>2023-06-05T22:17:05Z</time>
      </trkpt>
      <trkpt lat="49.03747" lon="1.76111">
        <ele>169</ele>
        <time>2023-06-05T22:18:26Z</time>
      </trkpt>
      <trkpt lat="49.03476" lon="1.76044">
        <ele>152</ele>
        <time>2023-06-05T22:24:33Z</time>
      </trkpt>
      <trkpt lat="49.0338" lon="1.75997">
        <ele>144</ele>
        <time>2023-06-05T22:26:47Z</time>
      </trkpt>
      <trkpt lat="49.03206" lon="1.75887">
        <ele>133</ele>
        <time>2023-06-05T22:30:59Z</time>
      </trkpt>
      <trkpt lat="49.03135" lon="1.75857">
        <ele>130</ele>
        <time>2023-06-05T22:32:37Z</time>
      </trkpt>
      <trkpt lat="49.031" lon="1.75786">
        <ele>128</ele>
        <time>2023-06-05T22:33:55Z</time>
      </trkpt>
      <trkpt lat="49.02991" lon="1.75649">
        <ele>123</ele>
        <time>2023-06-05T22:37:03Z</time>
      </trkpt>
      <trkpt lat="49.02929" lon="1.75563">
        <ele>119</ele>
        <time>2023-06-05T22:38:55Z</time>
      </trkpt>
      <trkpt lat="49.02863" lon="1.7549">
        <ele>117</ele>
        <time>2023-06-05T22:40:44Z</time>
      </trkpt>
      <trkpt lat="49.02726" lon="1.75213">
        <ele>112</ele>
        <time>2023-06-05T22:45:47Z</time>
      </trkpt>
      <trkpt lat="49.02674" lon="1.75144">
        <ele>108</ele>
        <time>2023-06-05T22:47:19Z</time>
      </trkpt>
      <trkpt lat="49.02716" lon="1.75086">
        <ele>113</ele>
        <time>2023-06-05T22:48:35Z</time>
      </trkpt>
      <trkpt lat="49.0274" lon="1.74974">
        <ele>116</ele>
        <time>2023-06-05T22:50:18Z</time>
      </trkpt>
      <trkpt lat="49.02721" lon="1.74866">
        <ele>108</ele>
        <time>2023-06-05T22:51:56Z</time>
      </trkpt>
      <trkpt lat="49.02705" lon="1.74816">
        <ele>103</ele>
        <time>2023-06-05T22:52:45Z</time>
      </trkpt>
      <trkpt lat="49.02698" lon="1.74718">
        <ele>96</ele>
        <time>2023-06-05T22:54:11Z</time>
      </trkpt>
      <trkpt lat="49.02572" lon="1.74433">
        <ele>109</ele>
        <time>2023-06-05T22:59:12Z</time>
      </trkpt>
      <trkpt lat="49.02539" lon="1.74368">
        <ele>114</ele>
        <time>2023-06-05T23:00:24Z</time>
      </trkpt>
      <trkpt lat="49.02518" lon="1.74343">
        <ele>116</ele>
        <time>2023-06-05T23:00:59Z</time>
      </trkpt>
      <trkpt lat="49.02565" lon="1.74242">
        <ele>122</ele>
        <time>2023-06-05T23:02:48Z</time>
      </trkpt>
      <trkpt lat="49.02634" lon="1.74159">
        <ele>125</ele>
        <time>2023-06-05T23:04:45Z</time>
      </trkpt>
      <trkpt lat="49.027" lon="1.74072">
        <ele>127</ele>
        <time>2023-06-05T23:06:41Z</time>
      </trkpt>
      <trkpt lat="49.02759" lon="1.7396">
        <ele>129</ele>
        <time>2023-06-05T23:08:47Z</time>
      </trkpt>
      <trkpt lat="49.02783" lon="1.73859">
        <ele>129</ele>
        <time>2023-06-05T23:10:21Z</time>
      </trkpt>
      <trkpt lat="49.02795" lon="1.73719">
        <ele>130</ele>
        <time>2023-06-05T23:12:25Z</time>
      </trkpt>
      <trkpt lat="49.02792" lon="1.73589">
        <ele>130</ele>
        <time>2023-06-05T23:14:18Z</time>
      </trkpt>
      <trkpt lat="49.02819" lon="1.73538">
        <ele>130</ele>
        <time>2023-06-05T23:15:16Z</time>
      </trkpt>
      <trkpt lat="49.02834" lon="1.7348">
        <ele>133</ele>
        <time>2023-06-05T23:16:10Z</time>
      </trkpt>
      <trkpt lat="49.02871" lon="1.73379">
        <ele>136</ele>
        <time>2023-06-05T23:17:51Z</time>
      </trkpt>
      <trkpt lat="49.02917" lon="1.73207">
        <ele>141</ele>
        <time>2023-06-05T23:20:34Z</time>
      </trkpt>
      <trkpt lat="49.02609" lon="1.72287">
        <ele>145</ele>
        <time>2023-06-05T23:35:38Z</time>
      </trkpt>
      <trkpt lat="49.02443" lon="1.71854">
        <ele>137</ele>
        <time>2023-06-05T23:42:57Z</time>
      </trkpt>
      <trkpt lat="49.02424" lon="1.71801">
        <ele>135</ele>
        <time>2023-06-05T23:43:50Z</time>
      </trkpt>
      <trkpt lat="49.02417" lon="1.71764">
        <ele>132</ele>
        <time>2023-06-05T23:44:23Z</time>
      </trkpt>
      <trkpt lat="49.0238" lon="1.71708">
        <ele>129</ele>
        <time>2023-06-05T23:45:33Z</time>
      </trkpt>
      <trkpt lat="49.02238" lon="1.71514">
        <ele>125</ele>
        <time>2023-06-05T23:49:47Z</time>
      </trkpt>
      <trkpt lat="49.02206" lon="1.71466">
        <ele>124</ele>
        <time>2023-06-05T23:50:47Z</time>
      </trkpt>
      <trkpt lat="49.02152" lon="1.71404">
        <ele>121</ele>
        <time>2023-06-05T23:52:17Z</time>
      </trkpt>
      <trkpt lat="49.02172" lon="1.71355">
        <ele>122</ele>
        <time>2023-06-05T23:53:08Z</time>
      </trkpt>
      <trkpt lat="49.02157" lon="1.71295">
        <ele>119</ele>
        <time>2023-06-05T23:54:04Z</time>
      </trkpt>
      <trkpt lat="49.02139" lon="1.71254">
        <ele>116</ele>
        <time>2023-06-05T23:54:47Z</time>
      </trkpt>
      <trkpt lat="49.02114" lon="1.71253">
        <ele>114</ele>
        <time>2023-06-05T23:55:21Z</time>
      </trkpt>
      <trkpt lat="49.02047" lon="1.71232">
        <ele>111</ele>
        <time>2023-06-05T23:56:52Z</time>
      </trkpt>
      <trkpt lat="49.02054" lon="1.71164">
        <ele>108</ele>
        <time>2023-06-05T23:57:52Z</time>
      </trkpt>
      <trkpt lat="49.02167" lon="1.70961">
        <ele>98</ele>
        <time>2023-06-06T00:01:45Z</time>
      </trkpt>
      <trkpt lat="49.02186" lon="1.70878">
        <ele>94</ele>
        <time>2023-06-06T00:03:02Z</time>
      </trkpt>
      <trkpt lat="49.02191" lon="1.70688">
        <ele>85</ele>
        <time>2023-06-06T00:05:49Z</time>
      </trkpt>
      <trkpt lat="49.02181" lon="1.70641">
        <ele>84</ele>
        <time>2023-06-06T00:06:32Z</time>
      </trkpt>
      <trkpt lat="49.02146" lon="1.70424">
        <ele>75</ele>
        <time>2023-06-06T00:09:47Z</time>
      </trkpt>
      <trkpt lat="49.02118" lon="1.70269">
        <ele>62</ele>
        <time>2023-06-06T00:12:08Z</time>
      </trkpt>
      <trkpt lat="49.0208" lon="1.70204">
        <ele>58</ele>
        <time>2023-06-06T00:13:24Z</time>
      </trkpt>
      <trkpt lat="49.02025" lon="1.70063">
        <ele>50</ele>
        <time>2023-06-06T00:15:48Z</time>
      </trkpt>
      <trkpt lat="49.01928" lon="1.7003">
        <ele>54</ele>
        <time>2023-06-06T00:18:00Z</time>
      </trkpt>
      <trkpt lat="49.01827" lon="1.6994">
        <ele>53</ele>
        <time>2023-06-06T00:20:37Z</time>
      </trkpt>
      <trkpt lat="49.01654" lon="1.69875">
        <ele>53</ele>
        <time>2023-06-06T00:24:34Z</time>
      </trkpt>
      <trkpt lat="49.01612" lon="1.69871">
        <ele>55</ele>
        <time>2023-06-06T00:25:30Z</time>
      </trkpt>
      <trkpt lat="49.01565" lon="1.69871">
        <ele>56</ele>
        <time>2023-06-06T00:26:33Z</time>
      </trkpt>
      <trkpt lat="49.01506" lon="1.69865">
        <ele>54</ele>
        <time>2023-06-06T00:27:52Z</time>
      </trkpt>
      <trkpt lat="49.01485" lon="1.6987">
        <ele>54</ele>
        <time>2023-06-06T00:28:20Z</time>
      </trkpt>
      <trkpt lat="49.01449" lon="1.69886">
        <ele>54</ele>
        <time>2023-06-06T00:29:10Z</time>
      </trkpt>
      <trkpt lat="49.01456" lon="1.69929">
        <ele>61</ele>
        <time>2023-06-06T00:29:49Z</time>
      </trkpt>
      <trkpt lat="49.01451" lon="1.69964">
        <ele>67</ele>
        <time>2023-06-06T00:30:21Z</time>
      </trkpt>
      <trkpt lat="49.01437" lon="1.69993">
        <ele>71</ele>
        <time>2023-06-06T00:30:52Z</time>
      </trkpt>
      <trkpt lat="49.01386" lon="1.70082">
        <ele>79</ele>
        <time>2023-06-06T00:32:36Z</time>
      </trkpt>
      <trkpt lat="49.01371" lon="1.70116">
        <ele>82</ele>
        <time>2023-06-06T00:33:11Z</time>
      </trkpt>
      <trkpt lat="49.01334" lon="1.70231">
        <ele>88</ele>
        <time>2023-06-06T00:35:04Z</time>
      </trkpt>
      <trkpt lat="49.01333" lon="1.70254">
        <ele>90</ele>
        <time>2023-06-06T00:35:24Z</time>
      </trkpt>
      <trkpt lat="49.0134" lon="1.70284">
        <ele>95</ele>
        <time>2023-06-06T00:35:52Z</time>
      </trkpt>
      <trkpt lat="49.01352" lon="1.7031">
        <ele>100</ele>
        <time>2023-06-06T00:36:19Z</time>
      </trkpt>
      <trkpt lat="49.01355" lon="1.70337">
        <ele>104</ele>
        <time>2023-06-06T00:36:43Z</time>
      </trkpt>
      <trkpt lat="49.01369" lon="1.70324">
        <ele>105</ele>
        <time>2023-06-06T00:37:05Z</time>
      </trkpt>
      <trkpt lat="49.01399" lon="1.70284">
        <ele>107</ele>
        <time>2023-06-06T00:37:58Z</time>
      </trkpt>
      <trkpt lat="49.01438" lon="1.70219">
        <ele>108</ele>
        <time>2023-06-06T00:39:16Z</time>
      </trkpt>
      <trkpt lat="49.01474" lon="1.70177">
        <ele>107</ele>
        <time>2023-06-06T00:40:16Z</time>
      </trkpt>
      <trkpt lat="49.01505" lon="1.70155">
        <ele>107</ele>
        <time>2023-06-06T00:41:02Z</time>
      </trkpt>
      <trkpt lat="49.01535" lon="1.70157">
        <ele>111</ele>
        <time>2023-06-06T00:41:42Z</time>
      </trkpt>
      <trkpt lat="49.01625" lon="1.70155">
        <ele>115</ele>
        <time>2023-06-06T00:43:42Z</time>
      </trkpt>
      <trkpt lat="49.0168" lon="1.70163">
        <ele>114</ele>
        <time>2023-06-06T00:44:56Z</time>
      </trkpt>
      <trkpt lat="49.01704" lon="1.70189">
        <ele>115</ele>
        <time>2023-06-06T00:45:35Z</time>
      </trkpt>
      <trkpt lat="49.01778" lon="1.70247">
        <ele>115</ele>
        <time>2023-06-06T00:47:26Z</time>
      </trkpt>
      <trkpt lat="49.01788" lon="1.70274">
        <ele>116</ele>
        <time>2023-06-06T00:47:53Z</time>
      </trkpt>
      <trkpt lat="49.01788" lon="1.70291">
        <ele>119</ele>
        <time>2023-06-06T00:48:08Z</time>
      </trkpt>
      <trkpt lat="49.01795" lon="1.70307">
        <ele>120</ele>
        <time>2023-06-06T00:48:25Z</time>
      </trkpt>
      <trkpt lat="49.01831" lon="1.70367">
        <ele>122</ele>
        <time>2023-06-06T00:49:36Z</time>
      </trkpt>
      <trkpt lat="49.01849" lon="1.70417">
        <ele>126</ele>
        <time>2023-06-06T00:50:26Z</time>
      </trkpt>
      <trkpt lat="49.01885" lon="1.70485">
        <ele>128</ele>
        <time>2023-06-06T00:51:42Z</time>
      </trkpt>
      <trkpt lat="49.01912" lon="1.70529">
        <ele>128</ele>
        <time>2023-06-06T00:52:35Z</time>
      </trkpt>
      <trkpt lat="49.01941" lon="1.70564">
        <ele>126</ele>
        <time>2023-06-06T00:53:24Z</time>
      </trkpt>
      <trkpt lat="49.01979" lon="1.70599">
        <ele>123</ele>
        <time>2023-06-06T00:54:24Z</time>
      </trkpt>
      <trkpt lat="49.01995" lon="1.70607">
        <ele>122</ele>
        <time>2023-06-06T00:54:46Z</time>
      </trkpt>
      <trkpt lat="49.02015" lon="1.70633">
        <ele>121</ele>
        <time>2023-06-06T00:55:21Z</time>
      </trkpt>
      <trkpt lat="49.02037" lon="1.70696">
        <ele>122</ele>
        <time>2023-06-06T00:56:24Z</time>
      </trkpt>
      <trkpt lat="49.02041" lon="1.70738">
        <ele>124</ele>
        <time>2023-06-06T00:57:01Z</time>
      </trkpt>
      <trkpt lat="49.0202" lon="1.70843">
        <ele>128</ele>
        <time>2023-06-06T00:58:37Z</time>
      </trkpt>
      <trkpt lat="49.01983" lon="1.70905">
        <ele>128</ele>
        <time>2023-06-06T00:59:50Z</time>
      </trkpt>
      <trkpt lat="49.0195" lon="1.70988">
        <ele>126</ele>
        <time>2023-06-06T01:01:15Z</time>
      </trkpt>
      <trkpt lat="49.01914" lon="1.71188">
        <ele>126</ele>
        <time>2023-06-06T01:04:17Z</time>
      </trkpt>
      <trkpt lat="49.01901" lon="1.71291">
        <ele>125</ele>
        <time>2023-06-06T01:05:48Z</time>
      </trkpt>
      <trkpt lat="49.01901" lon="1.71321">
        <ele>125</ele>
        <time>2023-06-06T01:06:15Z</time>
      </trkpt>
      <trkpt lat="49.0191" lon="1.71388">
        <ele>124</ele>
        <time>2023-06-06T01:07:15Z</time>
      </trkpt>
      <trkpt lat="49.01867" lon="1.71376">
        <ele>127</ele>
        <time>2023-06-06T01:08:13Z</time>
      </trkpt>
      <trkpt lat="49.01796" lon="1.7137">
        <ele>131</ele>
        <time>2023-06-06T01:09:48Z</time>
      </trkpt>
      <trkpt lat="49.01759" lon="1.71424">
        <ele>133</ele>
        <time>2023-06-06T01:10:56Z</time>
      </trkpt>
      <trkpt lat="49.01744" lon="1.71451">
        <ele>133</ele>
        <time>2023-06-06T01:11:27Z</time>
      </trkpt>
      <trkpt lat="49.01702" lon="1.71491">
        <ele>133</ele>
        <time>2023-06-06T01:12:33Z</time>
      </trkpt>
      <trkpt lat="49.01756" lon="1.71542">
        <ele>131</ele>
        <time>2023-06-06T01:13:58Z</time>
      </trkpt>
      <trkpt lat="49.01805" lon="1.71579">
        <ele>129</ele>
        <time>2023-06-06T01:15:11Z</time>
      </trkpt>
      <trkpt lat="49.01825" lon="1.71603">
        <ele>128</ele>
        <time>2023-06-06T01:15:45Z</time>
      </trkpt>
      <trkpt lat="49.01783" lon="1.71688">
        <ele>129</ele>
        <time>2023-06-06T01:17:18Z</time>
      </trkpt>
      <trkpt lat="49.01723" lon="1.71845">
        <ele>131</ele>
        <time>2023-06-06T01:19:57Z</time>
      </trkpt>
      <trkpt lat="49.01685" lon="1.71929">
        <ele>132</ele>
        <time>2023-06-06T01:21:26Z</time>
      </trkpt>
      <trkpt lat="49.01664" lon="1.71984">
        <ele>135</ele>
        <time>2023-06-06T01:22:22Z</time>
      </trkpt>
      <trkpt lat="49.01729" lon="1.7204">
        <ele>133</ele>
        <time>2023-06-06T01:24:02Z</time>
      </trkpt>
      <trkpt lat="49.01845" lon="1.72128">
        <ele>130</ele>
        <time>2023-06-06T01:26:55Z</time>
      </trkpt>
      <trkpt lat="49.01937" lon="1.72203">
        <ele>128</ele>
        <time>2023-06-06T01:29:14Z</time>
      </trkpt>
      <trkpt lat="49.01922" lon="1.72354">
        <ele>134</ele>
        <time>2023-06-06T01:31:27Z</time>
      </trkpt>
      <trkpt lat="49.01931" lon="1.72395">
        <ele>136</ele>
        <time>2023-06-06T01:32:05Z</time>
      </trkpt>
      <trkpt lat="49.0199" lon="1.72551">
        <ele>142</ele>
        <time>2023-06-06T01:34:43Z</time>
      </trkpt>
      <trkpt lat="49.01995" lon="1.72592">
        <ele>142</ele>
        <time>2023-06-06T01:35:19Z</time>
      </trkpt>
      <trkpt lat="49.02" lon="1.7276">
        <ele>143</ele>
        <time>2023-06-06T01:37:47Z</time>
      </trkpt>
      <trkpt lat="49.02004" lon="1.73062">
        <ele>140</ele>
        <time>2023-06-06T01:42:11Z</time>
      </trkpt>
      <trkpt lat="49.01982" lon="1.73829">
        <ele>131</ele>
        <time>2023-06-06T01:53:23Z</time>
      </trkpt>
      <trkpt lat="49.01955" lon="1.73982">
        <ele>129</ele>
        <time>2023-06-06T01:55:41Z</time>
      </trkpt>
      <trkpt lat="49.01954" lon="1.7401">
        <ele>129</ele>
        <time>2023-06-06T01:56:06Z</time>
      </trkpt>
      <trkpt lat="49.01993" lon="1.74348">
        <ele>128</ele>
        <time>2023-06-06T02:01:06Z</time>
      </trkpt>
      <trkpt lat="49.02001" lon="1.74445">
        <ele>127</ele>
        <time>2023-06-06T02:02:32Z</time>
      </trkpt>
      <trkpt lat="49.02001" lon="1.74526">
        <ele>126</ele>
        <time>2023-06-06T02:03:43Z</time>
      </trkpt>
      <trkpt lat="49.01973" lon="1.74849">
        <ele>120</ele>
        <time>2023-06-06T02:08:28Z</time>
      </trkpt>
      <trkpt lat="49.01965" lon="1.74918">
        <ele>119</ele>
        <time>2023-06-06T02:09:29Z</time>
      </trkpt>
      <trkpt lat="49.01955" lon="1.74979">
        <ele>118</ele>
        <time>2023-06-06T02:10:24Z</time>
      </trkpt>
      <trkpt lat="49.0194" lon="1.7504">
        <ele>116</ele>
        <time>2023-06-06T02:11:21Z</time>
      </trkpt>
      <trkpt lat="49.01883" lon="1.75218">
        <ele>110</ele>
        <time>2023-06-06T02:14:15Z</time>
      </trkpt>
      <trkpt lat="49.01848" lon="1.75345">
        <ele>108</ele>
        <time>2023-06-06T02:16:15Z</time>
      </trkpt>
      <trkpt lat="49.01852" lon="1.75331">
        <ele>108</ele>
        <time>2023-06-06T02:16:29Z</time>
      </trkpt>
      <trkpt lat="49.01835" lon="1.75378">
        <ele>107</ele>
        <time>2023-06-06T02:17:16Z</time>
      </trkpt>
      <trkpt lat="49.01837" lon="1.75438">
        <ele>106</ele>
        <time>2023-06-06T02:18:08Z</time>
      </trkpt>
      <trkpt lat="49.01846" lon="1.75478">
        <ele>104</ele>
        <time>2023-06-06T02:18:45Z</time>
      </trkpt>
      <trkpt lat="49.01858" lon="1.75506">
        <ele>103</ele>
        <time>2023-06-06T02:19:14Z</time>
      </trkpt>
      <trkpt lat="49.01845" lon="1.75553">
        <ele>102</ele>
        <time>2023-06-06T02:19:59Z</time>
      </trkpt>
      <trkpt lat="49.01826" lon="1.75787">
        <ele>93</ele>
        <time>2023-06-06T02:23:25Z</time>
      </trkpt>
      <trkpt lat="49.01829" lon="1.75816">
        <ele>91</ele>
        <time>2023-06-06T02:23:51Z</time>
      </trkpt>
      <trkpt lat="49.01836" lon="1.75837">
        <ele>90</ele>
        <time>2023-06-06T02:24:12Z</time>
      </trkpt>
      <trkpt lat="49.01877" lon="1.75894">
        <ele>88</ele>
        <time>2023-06-06T02:25:26Z</time>
      </trkpt>
      <trkpt lat="49.0189" lon="1.75918">
        <ele>87</ele>
        <time>2023-06-06T02:25:53Z</time>
      </trkpt>
      <trkpt lat="49.01899" lon="1.75951">
        <ele>85</ele>
        <time>2023-06-06T02:26:24Z</time>
      </trkpt>
      <trkpt lat="49.01903" lon="1.75984">
        <ele>84</ele>
        <time>2023-06-06T02:26:54Z</time>
      </trkpt>
      <trkpt lat="49.01919" lon="1.76051">
        <ele>81</ele>
        <time>2023-06-06T02:27:56Z</time>
      </trkpt>
      <trkpt lat="49.01926" lon="1.76089">
        <ele>80</ele>
        <time>2023-06-06T02:28:31Z</time>
      </trkpt>
      <trkpt lat="49.0193" lon="1.76132">
        <ele>79</ele>
        <time>2023-06-06T02:29:09Z</time>
      </trkpt>
      <trkpt lat="49.01936" lon="1.76136">
        <ele>79</ele>
        <time>2023-06-06T02:29:17Z</time>
      </trkpt>
      <trkpt lat="49.01963" lon="1.7619">
        <ele>80</ele>
        <time>2023-06-06T02:30:17Z</time>
      </trkpt>
      <trkpt lat="49.01987" lon="1.76192">
        <ele>80</ele>
        <time>2023-06-06T02:30:49Z</time>
      </trkpt>
      <trkpt lat="49.01998" lon="1.76179">
        <ele>80</ele>
        <time>2023-06-06T02:31:07Z</time>
      </trkpt>
      <trkpt lat="49.02005" lon="1.76196">
        <ele>81</ele>
        <time>2023-06-06T02:31:25Z</time>
      </trkpt>
      <trkpt lat="49.02013" lon="1.7624">
        <ele>82</ele>
        <time>2023-06-06T02:32:05Z</time>
      </trkpt>
      <trkpt lat="49.02007" lon="1.76383">
        <ele>90</ele>
        <time>2023-06-06T02:34:10Z</time>
      </trkpt>
      <trkpt lat="49.02013" lon="1.76411">
        <ele>92</ele>
        <time>2023-06-06T02:34:36Z</time>
      </trkpt>
      <trkpt lat="49.02032" lon="1.76417">
        <ele>94</ele>
        <time>2023-06-06T02:35:02Z</time>
      </trkpt>
      <trkpt lat="49.02052" lon="1.76462">
        <ele>99</ele>
        <time>2023-06-06T02:35:50Z</time>
      </trkpt>
      <trkpt lat="49.02031" lon="1.76495">
        <ele>102</ele>
        <time>2023-06-06T02:36:30Z</time>
      </trkpt>
      <trkpt lat="49.02018" lon="1.76525">
        <ele>104</ele>
        <time>2023-06-06T02:37:01Z</time>
      </trkpt>
      <trkpt lat="49.02011" lon="1.76553">
        <ele>106</ele>
        <time>2023-06-06T02:37:27Z</time>
      </trkpt>
      <trkpt lat="49.02005" lon="1.76649">
        <ele>110</ele>
        <time>2023-06-06T02:38:52Z</time>
      </trkpt>
      <trkpt lat="49.02015" lon="1.76699">
        <ele>112</ele>
        <time>2023-06-06T02:39:38Z</time>
      </trkpt>
      <trkpt lat="49.0204" lon="1.76784">
        <ele>116</ele>
        <time>2023-06-06T02:40:59Z</time>
      </trkpt>
      <trkpt lat="49.02046" lon="1.7682">
        <ele>118</ele>
        <time>2023-06-06T02:41:32Z</time>
      </trkpt>
      <trkpt lat="49.02051" lon="1.76996">
        <ele>124</ele>
        <time>2023-06-06T02:44:06Z</time>
      </trkpt>
      <trkpt lat="49.02024" lon="1.77134">
        <ele>126</ele>
        <time>2023-06-06T02:46:12Z</time>
      </trkpt>
      <trkpt lat="49.01964" lon="1.77397">
        <ele>124</ele>
        <time>2023-06-06T02:50:16Z</time>
      </trkpt>
      <trkpt lat="49.02019" lon="1.77474">
        <ele>126</ele>
        <time>2023-06-06T02:51:55Z</time>
      </trkpt>
      <trkpt lat="49.02092" lon="1.77609">
        <ele>129</ele>
        <time>2023-06-06T02:54:28Z</time>
      </trkpt>
      <trkpt lat="49.02178" lon="1.77719">
        <ele>139</ele>
        <time>2023-06-06T02:56:58Z</time>
      </trkpt>
      <trkpt lat="49.02224" lon="1.77793">
        <ele>144</ele>
        <time>2023-06-06T02:58:27Z</time>
      </trkpt>
      <trkpt lat="49.02311" lon="1.77903">
        <ele>150</ele>
        <time>2023-06-06T03:00:58Z</time>
      </trkpt>
      <trkpt lat="49.02375" lon="1.77961">
        <ele>155</ele>
        <time>2023-06-06T03:02:37Z</time>
      </trkpt>
      <trkpt lat="49.0255" lon="1.78065">
        <ele>160</ele>
        <time>2023-06-06T03:06:48Z</time>
      </trkpt>
      <trkpt lat="49.02618" lon="1.78134">
        <ele>161</ele>
        <time>2023-06-06T03:08:37Z</time>
      </trkpt>
      <trkpt lat="49.02643" lon="1.78148">
        <ele>162</ele>
        <time>2023-06-06T03:09:13Z</time>
      </trkpt>
      <trkpt lat="49.02673" lon="1.78154">
        <ele>163</ele>
        <time>2023-06-06T03:09:53Z</time>
      </trkpt>
      <trkpt lat="49.02746" lon="1.78176">
        <ele>172</ele>
        <time>2023-06-06T03:11:32Z</time>
      </trkpt>
      <trkpt lat="49.02797" lon="1.78187">
        <ele>170</ele>
        <time>2023-06-06T03:12:41Z</time>
      </trkpt>
      <trkpt lat="49.02852" lon="1.78216">
        <ele>170</ele>
        <time>2023-06-06T03:13:59Z</time>
      </trkpt>
      <trkpt lat="49.02907" lon="1.78226">
        <ele>170</ele>
        <time>2023-06-06T03:15:13Z</time>
      </trkpt>
      <trkpt lat="49.0295" lon="1.78255">
        <ele>171</ele>
        <time>2023-06-06T03:16:15Z</time>
      </trkpt>
      <trkpt lat="49.02977" lon="1.78278">
        <ele>170</ele>
        <time>2023-06-06T03:16:57Z</time>
      </trkpt>
      <trkpt lat="49.03" lon="1.78312">
        <ele>170</ele>
        <time>2023-06-06T03:17:39Z</time>
      </trkpt>
      <trkpt lat="49.03015" lon="1.78367">
        <ele>172</ele>
        <time>2023-06-06T03:18:32Z</time>
      </trkpt>
      <trkpt lat="49.03034" lon="1.78408">
        <ele>172</ele>
        <time>2023-06-06T03:19:15Z</time>
      </trkpt>
      <trkpt lat="49.03051" lon="1.78437">
        <ele>173</ele>
        <time>2023-06-06T03:19:49Z</time>
      </trkpt>
      <trkpt lat="49.03062" lon="1.78472">
        <ele>174</ele>
        <time>2023-06-06T03:20:23Z</time>
      </trkpt>
      <trkpt lat="49.03078" lon="1.78494">
        <ele>174</ele>
        <time>2023-06-06T03:20:52Z</time>
      </trkpt>
      <trkpt lat="49.03099" lon="1.78512">
        <ele>174</ele>
        <time>2023-06-06T03:21:24Z</time>
      </trkpt>
      <trkpt lat="49.03113" lon="1.78534">
        <ele>173</ele>
        <time>2023-06-06T03:21:51Z</time>
      </trkpt>
      <trkpt lat="49.03312" lon="1.79053">
        <ele>150</ele>
        <time>2023-06-06T03:30:37Z</time>
      </trkpt>
      <trkpt lat="49.03374" lon="1.79151">
        <ele>140</ele>
        <time>2023-06-06T03:32:36Z</time>
      </trkpt>
      <trkpt lat="49.03406" lon="1.79176">
        <ele>138</ele>
        <time>2023-06-06T03:33:24Z</time>
      </trkpt>
      <trkpt lat="49.03431" lon="1.792">
        <ele>137</ele>
        <time>2023-06-06T03:34:04Z</time>
      </trkpt>
      <trkpt lat="49.03446" lon="1.79231">
        <ele>136</ele>
        <time>2023-06-06T03:34:37Z</time>
      </trkpt>
      <trkpt lat="49.03493" lon="1.79352">
        <ele>133</ele>
        <time>2023-06-06T03:36:40Z</time>
      </trkpt>
      <trkpt lat="49.03539" lon="1.79427">
        <ele>133</ele>
        <time>2023-06-06T03:38:10Z</time>
      </trkpt>
      <trkpt lat="49.03837" lon="1.79796">
        <ele>113</ele>
        <time>2023-06-06T03:46:43Z</time>
      </trkpt>
      <trkpt lat="49.03851" lon="1.79805">
        <ele>112</ele>
        <time>2023-06-06T03:47:03Z</time>
      </trkpt>
      <trkpt lat="49.03867" lon="1.79799">
        <ele>111</ele>
        <time>2023-06-06T03:47:25Z</time>
      </trkpt>
      <trkpt lat="49.03884" lon="1.79781">
        <ele>110</ele>
        <time>2023-06-06T03:47:52Z</time>
      </trkpt>
      <trkpt lat="49.039" lon="1.79759">
        <ele>109</ele>
        <time>2023-06-06T03:48:21Z</time>
      </trkpt>
      <trkpt lat="49.0391" lon="1.79751">
        <ele>108</ele>
        <time>2023-06-06T03:48:36Z</time>
      </trkpt>
      <trkpt lat="49.03899" lon="1.79807">
        <ele>108</ele>
        <time>2023-06-06T03:49:27Z</time>
      </trkpt>
      <trkpt lat="49.03895" lon="1.79854">
        <ele>107</ele>
        <time>2023-06-06T03:50:09Z</time>
      </trkpt>
      <trkpt lat="49.0389" lon="1.7998">
        <ele>104</ele>
        <time>2023-06-06T03:51:59Z</time>
      </trkpt>
      <trkpt lat="49.03863" lon="1.80194">
        <ele>102</ele>
        <time>2023-06-06T03:55:10Z</time>
      </trkpt>
      <trkpt lat="49.03862" lon="1.8022">
        <ele>102</ele>
        <time>2023-06-06T03:55:33Z</time>
      </trkpt>
      <trkpt lat="49.03877" lon="1.8021">
        <ele>100</ele>
        <time>2023-06-06T03:55:55Z</time>
      </trkpt>
      <trkpt lat="49.03898" lon="1.8017">
        <ele>98</ele>
        <time>2023-06-06T03:56:39Z</time>
      </trkpt>
      <trkpt lat="49.03916" lon="1.80112">
        <ele>97</ele>
        <time>2023-06-06T03:57:36Z</time>
      </trkpt>
      <trkpt lat="49.03932" lon="1.80076">
        <ele>95</ele>
        <time>2023-06-06T03:58:14Z</time>
      </trkpt>
      <trkpt lat="49.03977" lon="1.8002">
        <ele>92</ele>
        <time>2023-06-06T03:59:31Z</time>
      </trkpt>
      <trkpt lat="49.04019" lon="1.80033">
        <ele>89</ele>
        <time>2023-06-06T04:00:28Z</time>
      </trkpt>
      <trkpt lat="49.04067" lon="1.80057">
        <ele>89</ele>
        <time>2023-06-06T04:01:36Z</time>
      </trkpt>
      <trkpt lat="49.04128" lon="1.80105">
        <ele>93</ele>
        <time>2023-06-06T04:03:07Z</time>
      </trkpt>
      <trkpt lat="49.04146" lon="1.80121">
        <ele>95</ele>
        <time>2023-06-06T04:03:35Z</time>
      </trkpt>
      <trkpt lat="49.04156" lon="1.80148">
        <ele>97</ele>
        <time>2023-06-06T04:04:02Z</time>
      </trkpt>
      <trkpt lat="49.04154" lon="1.80214">
        <ele>99</ele>
        <time>2023-06-06T04:05:00Z</time>
      </trkpt>
      <trkpt lat="49.04176" lon="1.80215">
        <ele>103</ele>
        <time>2023-06-06T04:05:29Z</time>
      </trkpt>
      <trkpt lat="49.04181" lon="1.80221">
        <ele>104</ele>
        <time>2023-06-06T04:05:38Z</time>
      </trkpt>
      <trkpt lat="49.04196" lon="1.80271">
        <ele>108</ele>
        <time>2023-06-06T04:06:26Z</time>
      </trkpt>
      <trkpt lat="49.04225" lon="1.8033">
        <ele>112</ele>
        <time>2023-06-06T04:07:30Z</time>
      </trkpt>
      <trkpt lat="49.04229" lon="1.80336">
        <ele>113</ele>
        <time>2023-06-06T04:07:38Z</time>
      </trkpt>
      <trkpt lat="49.043" lon="1.80393">
        <ele>120</ele>
        <time>2023-06-06T04:09:25Z</time>
      </trkpt>
      <trkpt lat="49.04348" lon="1.80439">
        <ele>124</ele>
        <time>2023-06-06T04:10:41Z</time>
      </trkpt>
      <trkpt lat="49.04416" lon="1.80514">
        <ele>131</ele>
        <time>2023-06-06T04:12:33Z</time>
      </trkpt>
      <trkpt lat="49.04482" lon="1.80593">
        <ele>142</ele>
        <time>2023-06-06T04:14:25Z</time>
      </trkpt>
      <trkpt lat="49.04499" lon="1.80624">
        <ele>146</ele>
        <time>2023-06-06T04:15:00Z</time>
      </trkpt>
      <trkpt lat="49.0451" lon="1.80655">
        <ele>148</ele>
        <time>2023-06-06T04:15:31Z</time>
      </trkpt>
      <trkpt lat="49.04523" lon="1.80716">
        <ele>149</ele>
        <time>2023-06-06T04:16:27Z</time>
      </trkpt>
      <trkpt lat="49.04533" lon="1.80751">
        <ele>149</ele>
        <time>2023-06-06T04:17:00Z</time>
      </trkpt>
      <trkpt lat="49.04546" lon="1.8078">
        <ele>151</ele>
        <time>2023-06-06T04:17:31Z</time>
      </trkpt>
      <trkpt lat="49.04592" lon="1.80844">
        <ele>157</ele>
        <time>2023-06-06T04:18:54Z</time>
      </trkpt>
      <trkpt lat="49.04643" lon="1.80926">
        <ele>163</ele>
        <time>2023-06-06T04:20:33Z</time>
      </trkpt>
      <trkpt lat="49.04663" lon="1.80945">
        <ele>165</ele>
        <time>2023-06-06T04:21:04Z</time>
      </trkpt>
      <trkpt lat="49.04696" lon="1.8096">
        <ele>164</ele>
        <time>2023-06-06T04:21:50Z</time>
      </trkpt>
      <trkpt lat="49.04743" lon="1.80965">
        <ele>165</ele>
        <time>2023-06-06T04:22:53Z</time>
      </trkpt>
      <trkpt lat="49.04768" lon="1.80909">
        <ele>169</ele>
        <time>2023-06-06T04:23:52Z</time>
      </trkpt>
      <trkpt lat="49.04827" lon="1.80819">
        <ele>173</ele>
        <time>2023-06-06T04:25:44Z</time>
      </trkpt>
      <trkpt lat="49.04871" lon="1.80743">
        <ele>172</ele>
        <time>2023-06-06T04:27:12Z</time>
      </trkpt>
      <trkpt lat="49.04894" lon="1.80718">
        <ele>170</ele>
        <time>2023-06-06T04:27:50Z</time>
      </trkpt>
      <trkpt lat="49.04938" lon="1.80691">
        <ele>167</ele>
        <time>2023-06-06T04:28:53Z</time>
      </trkpt>
      <trkpt lat="49.0497" lon="1.80679">
        <ele>166</ele>
        <time>2023-06-06T04:29:37Z</time>
      </trkpt>
      <trkpt lat="49.05036" lon="1.80624">
        <ele>163</ele>
        <time>2023-06-06T04:31:18Z</time>
      </trkpt>
      <trkpt lat="49.05047" lon="1.80612">
        <ele>162</ele>
        <time>2023-06-06T04:31:36Z</time>
      </trkpt>
      <trkpt lat="49.05066" lon="1.80584">
        <ele>161</ele>
        <time>2023-06-06T04:32:11Z</time>
      </trkpt>
      <trkpt lat="49.05134" lon="1.8047">
        <ele>159</ele>
        <time>2023-06-06T04:34:26Z</time>
      </trkpt>
      <trkpt lat="49.05181" lon="1.80416">
        <ele>158</ele>
        <time>2023-06-06T04:35:44Z</time>
      </trkpt>
      <trkpt lat="49.05199" lon="1.80401">
        <ele>157</ele>
        <time>2023-06-06T04:36:12Z</time>
      </trkpt>
      <trkpt lat="49.05217" lon="1.80392">
        <ele>155</ele>
        <time>2023-06-06T04:36:37Z</time>
      </trkpt>
      <trkpt lat="49.05323" lon="1.8046">
        <ele>155</ele>
        <time>2023-06-06T04:39:10Z</time>
      </trkpt>
      <trkpt lat="49.05349" lon="1.80488">
        <ele>156</ele>
        <time>2023-06-06T04:39:53Z</time>
      </trkpt>
      <trkpt lat="49.05377" lon="1.80527">
        <ele>156</ele>
        <time>2023-06-06T04:40:44Z</time>
      </trkpt>
      <trkpt lat="49.0539" lon="1.8055">
        <ele>156</ele>
        <time>2023-06-06T04:41:10Z</time>
      </trkpt>
      <trkpt lat="49.05411" lon="1.80601">
        <ele>156</ele>
        <time>2023-06-06T04:42:03Z</time>
      </trkpt>
      <trkpt lat="49.05425" lon="1.8066">
        <ele>156</ele>
        <time>2023-06-06T04:42:58Z</time>
      </trkpt>
      <trkpt lat="49.05441" lon="1.80697">
        <ele>155</ele>
        <time>2023-06-06T04:43:36Z</time>
      </trkpt>
      <trkpt lat="49.05489" lon="1.80782">
        <ele>151</ele>
        <time>2023-06-06T04:45:15Z</time>
      </trkpt>
      <trkpt lat="49.05574" lon="1.80942">
        <ele>141</ele>
        <time>2023-06-06T04:48:15Z</time>
      </trkpt>
      <trkpt lat="49.05716" lon="1.81106">
        <ele>120</ele>
        <time>2023-06-06T04:52:12Z</time>
      </trkpt>
      <trkpt lat="49.05761" lon="1.81142">
        <ele>121</ele>
        <time>2023-06-06T04:53:20Z</time>
      </trkpt>
      <trkpt lat="49.05812" lon="1.81198">
        <ele>125</ele>
        <time>2023-06-06T04:54:44Z</time>
      </trkpt>
      <trkpt lat="49.05849" lon="1.81247">
        <ele>128</ele>
        <time>2023-06-06T04:55:49Z</time>
      </trkpt>
      <trkpt lat="49.05888" lon="1.81321">
        <ele>134</ele>
        <time>2023-06-06T04:57:12Z</time>
      </trkpt>
      <trkpt lat="49.05903" lon="1.81365">
        <ele>137</ele>
        <time>2023-06-06T04:57:56Z</time>
      </trkpt>
      <trkpt lat="49.05914" lon="1.81412">
        <ele>140</ele>
        <time>2023-06-06T04:58:39Z</time>
      </trkpt>
      <trkpt lat="49.05998" lon="1.81393">
        <ele>142</ele>
        <time>2023-06-06T05:00:33Z</time>
      </trkpt>
      <trkpt lat="49.06068" lon="1.81414">
        <ele>147</ele>
        <time>2023-06-06T05:02:08Z</time>
      </trkpt>
      <trkpt lat="49.06176" lon="1.81463">
        <ele>155</ele>
        <time>2023-06-06T05:04:38Z</time>
      </trkpt>
      <trkpt lat="49.06182" lon="1.81497">
        <ele>156</ele>
        <time>2023-06-06T05:05:09Z</time>
      </trkpt>
    </trkseg>
  </trk>
</gpx>